Time;durP1;ratioP1;P1;durP2;ratioP2;P2;SDS_P1;SDS_P2;PMS_P1;PMS_P2;Temp;Humidity;BMP_temperature;BMP_pressure;BME280_temperature;BME280_humidity;BME280_pressure;Samples;Min_cycle;Max_cycle;Signal;HPM_P1;HPM_P2
2021/05/07 00:01:15;;;;;;;2.45;2.08;;;8.50;73.50;;;;;;3582259;39;20025;-68
2021/05/07 00:03:41;;;;;;;2.30;2.08;;;8.40;73.60;;;;;;3578602;40;20025;-67
2021/05/07 00:06:07;;;;;;;3.47;2.47;;;8.40;74.00;;;;;;3581170;40;20070;-67
2021/05/07 00:08:38;;;;;;;3.63;3.20;;;8.40;74.60;;;;;;3582761;40;20040;-68
2021/05/07 00:11:18;;;;;;;3.35;2.70;;;8.40;74.60;;;;;;3583682;40;20032;-67
2021/05/07 00:13:45;;;;;;;3.50;2.92;;;8.40;74.40;;;;;;3587057;40;20036;-67
2021/05/07 00:16:11;;;;;;;4.28;3.13;;;8.30;74.60;;;;;;3588943;40;20103;-67
2021/05/07 00:18:38;;;;;;;4.22;3.10;;;8.30;75.30;;;;;;3586714;40;20350;-68
2021/05/07 00:21:04;;;;;;;3.65;3.20;;;8.20;75.50;;;;;;3584524;40;20071;-67
2021/05/07 00:23:30;;;;;;;3.50;3.00;;;8.20;76.40;;;;;;3583913;40;20096;-68
2021/05/07 00:25:56;;;;;;;5.53;3.30;;;8.20;77.00;;;;;;3581652;40;20751;-68
2021/05/07 00:28:23;;;;;;;4.45;3.35;;;8.20;77.00;;;;;;3579914;40;20893;-67
2021/05/07 00:30:49;;;;;;;4.53;3.33;;;8.20;77.50;;;;;;3579115;40;20033;-68
2021/05/07 00:33:15;;;;;;;5.50;3.55;;;8.20;78.30;;;;;;3585973;39;20084;-68
2021/05/07 00:35:41;;;;;;;4.50;3.58;;;8.20;78.60;;;;;;3584332;40;20032;-67
2021/05/07 00:38:07;;;;;;;4.15;3.17;;;8.20;78.60;;;;;;3582574;40;20216;-68
2021/05/07 00:40:33;;;;;;;4.55;3.70;;;8.20;77.90;;;;;;3578637;40;20087;-67
2021/05/07 00:43:00;;;;;;;5.25;3.45;;;8.20;77.90;;;;;;3580372;40;20032;-68
2021/05/07 00:45:28;;;;;;;4.40;3.47;;;8.20;78.50;;;;;;3586783;40;20125;-68
2021/05/07 00:47:58;;;;;;;4.05;3.25;;;8.20;78.70;;;;;;3583974;40;20328;-68
2021/05/07 00:50:26;;;;;;;4.90;3.50;;;8.30;79.10;;;;;;3586011;40;20032;-68
2021/05/07 00:52:54;;;;;;;4.78;3.22;;;8.30;79.00;;;;;;3588021;39;20039;-68
2021/05/07 00:55:19;;;;;;;4.28;3.50;;;8.30;79.00;;;;;;3587988;40;20029;-67
2021/05/07 00:57:45;;;;;;;4.93;3.65;;;8.30;78.90;;;;;;3586517;39;20032;-68
2021/05/07 01:00:11;;;;;;;4.55;3.50;;;8.20;78.60;;;;;;3582984;40;20040;-67
2021/05/07 01:02:38;;;;;;;6.32;3.97;;;8.30;78.50;;;;;;3581052;40;20049;-68
2021/05/07 01:05:06;;;;;;;4.80;3.90;;;8.20;78.70;;;;;;3579433;40;20039;-68
2021/05/07 01:07:33;;;;;;;6.25;4.03;;;8.20;79.00;;;;;;3579822;40;20036;-68
2021/05/07 01:10:02;;;;;;;4.15;3.60;;;8.20;79.40;;;;;;3579765;40;20032;-67
2021/05/07 01:12:30;;;;;;;6.25;4.30;;;8.10;79.70;;;;;;3583539;40;20602;-68
2021/05/07 01:15:10;;;;;;;4.97;3.83;;;8.00;80.10;;;;;;3584137;40;20036;-67
2021/05/07 01:17:43;;;;;;;4.38;3.85;;;8.00;80.50;;;;;;3586421;40;20047;-68
2021/05/07 01:20:22;;;;;;;3.85;3.38;;;8.10;80.20;;;;;;3587039;39;20421;-68
2021/05/07 01:22:53;;;;;;;5.00;3.78;;;8.00;79.80;;;;;;3582546;40;20048;-67
2021/05/07 01:25:22;;;;;;;3.67;3.17;;;8.00;79.40;;;;;;3583168;40;20040;-67
2021/05/07 01:27:49;;;;;;;4.10;2.85;;;8.00;79.60;;;;;;3585993;39;20146;-67
2021/05/07 01:30:18;;;;;;;4.22;3.30;;;8.00;79.80;;;;;;3587006;40;20044;-68
2021/05/07 01:32:44;;;;;;;6.18;2.95;;;7.90;80.00;;;;;;3580405;40;20048;-70
2021/05/07 01:35:32;;;;;;;3.40;2.58;;;7.90;79.10;;;;;;3581510;40;20089;-69
2021/05/07 01:38:01;;;;;;;3.35;2.85;;;7.80;78.50;;;;;;3584337;40;20056;-69
2021/05/07 01:40:32;;;;;;;3.65;2.90;;;7.80;78.90;;;;;;3586111;40;20117;-68
2021/05/07 01:42:58;;;;;;;3.00;2.47;;;7.80;79.40;;;;;;3588210;39;20041;-69
2021/05/07 01:45:30;;;;;;;3.08;2.78;;;7.80;79.80;;;;;;3588738;39;20117;-69
2021/05/07 01:47:57;;;;;;;3.63;2.80;;;7.80;80.40;;;;;;3581847;40;20060;-68
2021/05/07 01:50:28;;;;;;;3.25;2.90;;;7.80;80.60;;;;;;3582951;40;20040;-66
2021/05/07 01:52:55;;;;;;;4.85;2.80;;;7.80;80.10;;;;;;3582279;40;20028;-66
2021/05/07 01:55:24;;;;;;;2.45;2.20;;;7.90;79.50;;;;;;3579400;40;20100;-69
2021/05/07 01:57:49;;;;;;;3.25;2.58;;;7.80;78.70;;;;;;3586742;40;20039;-69
2021/05/07 02:00:22;;;;;;;2.83;2.40;;;7.90;78.80;;;;;;3580461;39;20032;-70
2021/05/07 02:02:48;;;;;;;2.92;2.47;;;7.90;78.20;;;;;;3582739;40;20312;-69
2021/05/07 02:05:35;;;;;;;2.83;2.33;;;7.90;77.10;;;;;;3585466;40;20040;-70
2021/05/07 02:08:05;;;;;;;2.40;2.15;;;7.80;76.80;;;;;;3579818;40;20024;-70
2021/05/07 02:10:33;;;;;;;2.67;2.47;;;7.80;76.70;;;;;;3578149;40;20047;-69
2021/05/07 02:13:02;;;;;;;3.15;2.50;;;7.80;77.00;;;;;;3585123;40;20043;-69
2021/05/07 02:15:28;;;;;;;4.00;2.45;;;7.80;77.60;;;;;;3583240;40;20056;-69
2021/05/07 02:17:56;;;;;;;2.67;2.20;;;7.80;78.70;;;;;;3584057;40;20047;-69
2021/05/07 02:20:25;;;;;;;3.20;2.30;;;7.80;77.40;;;;;;3587179;39;20068;-70
2021/05/07 02:22:52;;;;;;;3.38;2.63;;;7.80;77.80;;;;;;3587945;40;20034;-69
2021/05/07 02:25:20;;;;;;;5.10;4.20;;;7.70;79.10;;;;;;3587997;39;20728;-68
2021/05/07 02:27:47;;;;;;;4.93;4.00;;;7.70;80.10;;;;;;3584908;40;20032;-69
2021/05/07 02:30:17;;;;;;;5.25;4.07;;;7.80;80.60;;;;;;3586012;40;20137;-69
2021/05/07 02:32:43;;;;;;;5.85;4.05;;;7.80;81.00;;;;;;3588310;39;20417;-69
2021/05/07 02:35:10;;;;;;;4.55;3.45;;;7.90;81.30;;;;;;3581004;40;20223;-69
2021/05/07 02:37:36;;;;;;;4.88;3.42;;;7.90;80.90;;;;;;3583670;40;20049;-69
2021/05/07 02:40:04;;;;;;;4.18;2.95;;;8.00;80.50;;;;;;3584135;40;20931;-70
2021/05/07 02:42:30;;;;;;;4.20;3.50;;;8.00;80.60;;;;;;3583800;40;20043;-69
2021/05/07 02:44:56;;;;;;;5.40;3.55;;;8.00;80.20;;;;;;3581892;40;20036;-70
2021/05/07 02:47:22;;;;;;;6.18;3.08;;;8.10;80.00;;;;;;3578897;40;20027;-69
2021/05/07 02:49:48;;;;;;;4.47;3.00;;;8.10;79.80;;;;;;3581270;40;20044;-69
2021/05/07 02:52:14;;;;;;;3.28;2.78;;;8.10;79.60;;;;;;3583507;40;20029;-69
2021/05/07 02:54:40;;;;;;;4.88;2.78;;;8.10;79.20;;;;;;3584263;40;20542;-69
2021/05/07 02:57:06;;;;;;;3.15;2.85;;;8.10;79.00;;;;;;3581249;40;20028;-69
2021/05/07 02:59:32;;;;;;;3.70;2.88;;;8.20;79.00;;;;;;3583733;40;20132;-70
2021/05/07 03:01:58;;;;;;;4.43;3.58;;;8.20;79.10;;;;;;3586626;39;20036;-70
2021/05/07 03:04:24;;;;;;;4.28;3.40;;;8.20;79.10;;;;;;3584710;39;20045;-70
2021/05/07 03:06:50;;;;;;;4.13;3.33;;;8.20;78.90;;;;;;3584470;40;20394;-69
2021/05/07 03:09:19;;;;;;;5.38;3.97;;;8.20;78.70;;;;;;3580486;40;20132;-69
2021/05/07 03:11:45;;;;;;;4.47;4.00;;;8.20;78.20;;;;;;3588948;40;20080;-69
2021/05/07 03:14:11;;;;;;;4.95;4.03;;;8.20;78.10;;;;;;3583277;39;20048;-70
2021/05/07 03:16:37;;;;;;;6.82;4.22;;;8.20;78.00;;;;;;3584158;40;20813;-69
2021/05/07 03:19:03;;;;;;;6.22;4.50;;;8.20;77.70;;;;;;3583610;40;20025;-69
2021/05/07 03:21:29;;;;;;;5.15;3.70;;;8.20;77.60;;;;;;3585989;39;20024;-70
2021/05/07 03:23:55;;;;;;;6.15;3.97;;;8.20;77.50;;;;;;3579278;40;20055;-69
2021/05/07 03:26:21;;;;;;;5.22;3.90;;;8.20;77.30;;;;;;3585500;40;20019;-70
2021/05/07 03:28:46;;;;;;;5.22;4.25;;;8.10;77.00;;;;;;3585152;40;20044;-69
2021/05/07 03:31:12;;;;;;;3.80;3.30;;;8.10;77.40;;;;;;3583531;39;20733;-69
2021/05/07 03:33:38;;;;;;;5.22;4.28;;;8.00;77.40;;;;;;3585051;39;20052;-70
2021/05/07 03:36:05;;;;;;;7.28;4.25;;;8.00;77.70;;;;;;3583591;40;20036;-70
2021/05/07 03:38:31;;;;;;;5.50;4.82;;;8.00;77.70;;;;;;3581855;40;20052;-69
2021/05/07 03:40:57;;;;;;;9.63;5.32;;;8.00;78.00;;;;;;3582039;40;20104;-69
2021/05/07 03:43:23;;;;;;;7.15;5.00;;;8.00;78.10;;;;;;3584284;40;20088;-69
2021/05/07 03:45:49;;;;;;;5.38;4.53;;;8.00;78.00;;;;;;3584603;40;20121;-69
2021/05/07 03:48:20;;;;;;;5.88;4.65;;;8.00;78.70;;;;;;3587132;40;20032;-70
2021/05/07 03:50:50;;;;;;;6.88;4.97;;;8.00;78.70;;;;;;3584627;40;20024;-69
2021/05/07 03:53:17;;;;;;;6.88;4.40;;;8.00;79.10;;;;;;3583843;39;20044;-71
2021/05/07 03:55:43;;;;;;;7.43;5.35;;;8.10;79.00;;;;;;3582669;40;20028;-70
2021/05/07 03:58:10;;;;;;;6.97;4.88;;;8.10;78.80;;;;;;3583104;40;20618;-71
2021/05/07 04:00:36;;;;;;;6.10;4.75;;;8.20;78.70;;;;;;3585472;40;20027;-70
2021/05/07 04:03:02;;;;;;;6.80;5.00;;;8.20;79.00;;;;;;3584154;40;20033;-70
2021/05/07 04:05:28;;;;;;;5.68;4.50;;;8.20;78.60;;;;;;3585008;39;20617;-70
2021/05/07 04:08:16;;;;;;;7.03;5.10;;;8.30;78.00;;;;;;3584720;40;20032;-69
2021/05/07 04:10:43;;;;;;;5.15;4.28;;;8.30;78.00;;;;;;3582128;40;20040;-69
2021/05/07 04:13:33;;;;;;;6.28;5.18;;;8.40;78.00;;;;;;3583515;39;20495;-68
2021/05/07 04:15:58;;;;;;;6.72;5.07;;;8.40;77.70;;;;;;3581876;39;20514;-69
2021/05/07 04:18:24;;;;;;;7.68;4.95;;;8.60;77.30;;;;;;3582393;39;20041;-69
2021/05/07 04:20:50;;;;;;;6.93;4.60;;;8.60;76.80;;;;;;3584110;39;20043;-69
2021/05/07 04:23:16;;;;;;;6.18;4.57;;;8.60;76.80;;;;;;3584663;40;20178;-69
2021/05/07 04:25:42;;;;;;;5.55;4.32;;;8.60;75.80;;;;;;3587359;40;20166;-70
2021/05/07 04:28:08;;;;;;;3.40;3.10;;;8.60;75.40;;;;;;3586956;39;20121;-69
2021/05/07 04:30:33;;;;;;;5.70;4.00;;;8.70;74.60;;;;;;3585440;40;20028;-69
2021/05/07 04:32:59;;;;;;;4.70;3.58;;;8.70;74.10;;;;;;3584428;39;20055;-69
2021/05/07 04:35:25;;;;;;;4.38;3.05;;;8.70;73.40;;;;;;3582134;40;20028;-69
2021/05/07 04:37:51;;;;;;;14.60;7.93;;;8.80;73.40;;;;;;3582460;40;20024;-69
2021/05/07 04:40:17;;;;;;;6.75;3.33;;;8.80;72.60;;;;;;3580504;39;20032;-69
2021/05/07 04:42:43;;;;;;;4.72;3.05;;;8.80;73.90;;;;;;3581427;39;20028;-66
2021/05/07 04:45:09;;;;;;;6.15;2.70;;;8.90;74.20;;;;;;3582404;39;20040;-64
2021/05/07 04:47:35;;;;;;;4.03;2.90;;;8.90;73.10;;;;;;3581264;39;20039;-65
2021/05/07 04:50:01;;;;;;;3.10;2.22;;;8.90;74.00;;;;;;3583090;40;20047;-65
2021/05/07 04:52:27;;;;;;;7.10;2.65;;;8.90;74.90;;;;;;3587846;40;20247;-64
2021/05/07 04:54:52;;;;;;;4.32;2.50;;;8.90;75.10;;;;;;3588793;40;20825;-64
2021/05/07 04:57:18;;;;;;;4.20;2.60;;;8.90;75.20;;;;;;3585017;40;20397;-64
2021/05/07 04:59:44;;;;;;;2.83;2.25;;;8.90;74.90;;;;;;3587166;40;20028;-64
2021/05/07 05:02:09;;;;;;;3.42;2.05;;;8.90;74.70;;;;;;3589401;40;20401;-64
2021/05/07 05:04:35;;;;;;;3.25;2.50;;;9.00;75.20;;;;;;3590694;40;20127;-64
2021/05/07 05:07:01;;;;;;;7.20;2.88;;;9.00;76.40;;;;;;3584870;40;20556;-64
2021/05/07 05:09:27;;;;;;;2.45;2.25;;;9.00;76.10;;;;;;3587130;40;20055;-65
2021/05/07 05:11:53;;;;;;;3.50;2.70;;;9.00;76.60;;;;;;3586869;40;20036;-64
2021/05/07 05:14:18;;;;;;;3.97;2.58;;;8.90;75.50;;;;;;3589138;40;20706;-64
2021/05/07 05:16:44;;;;;;;4.28;2.63;;;8.90;75.50;;;;;;3585622;40;20743;-64
2021/05/07 05:19:10;;;;;;;3.05;2.28;;;8.90;76.50;;;;;;3584900;40;20059;-64
2021/05/07 05:21:36;;;;;;;3.72;2.33;;;8.80;78.00;;;;;;3583520;40;20035;-65
2021/05/07 05:24:03;;;;;;;3.13;1.90;;;8.80;78.20;;;;;;3586106;39;20032;-64
2021/05/07 05:26:28;;;;;;;3.50;2.10;;;8.80;78.50;;;;;;3586773;40;20303;-65
2021/05/07 05:28:54;;;;;;;2.75;2.22;;;8.80;78.60;;;;;;3590134;40;20026;-65
2021/05/07 05:31:20;;;;;;;3.95;2.40;;;8.80;78.60;;;;;;3583794;39;20035;-64
2021/05/07 05:33:45;;;;;;;3.65;2.10;;;8.90;78.60;;;;;;3586122;40;20083;-64
2021/05/07 05:36:11;;;;;;;5.72;2.10;;;8.90;77.30;;;;;;3586090;40;20313;-64
2021/05/07 05:38:37;;;;;;;5.90;2.90;;;9.00;76.40;;;;;;3583731;40;20032;-64
2021/05/07 05:41:03;;;;;;;5.53;2.58;;;9.00;76.20;;;;;;3589392;40;20036;-65
2021/05/07 05:43:28;;;;;;;6.93;2.58;;;9.00;76.50;;;;;;3588668;39;20027;-61
2021/05/07 05:45:54;;;;;;;3.78;2.72;;;9.00;75.80;;;;;;3586885;39;20036;-61
2021/05/07 05:48:22;;;;;;;5.60;3.20;;;9.00;76.00;;;;;;3586320;39;20024;-61
2021/05/07 05:50:50;;;;;;;3.88;2.13;;;9.00;75.40;;;;;;3584592;40;20154;-64
2021/05/07 05:53:16;;;;;;;2.20;1.83;;;9.00;76.10;;;;;;3588384;39;20036;-64
2021/05/07 05:55:42;;;;;;;3.08;2.00;;;9.00;76.20;;;;;;3582295;40;20069;-64
2021/05/07 05:58:08;;;;;;;5.88;1.92;;;9.00;76.20;;;;;;3583012;40;20021;-64
2021/05/07 06:00:35;;;;;;;4.75;1.75;;;9.00;76.60;;;;;;3587567;40;20024;-70
2021/05/07 06:03:01;;;;;;;3.45;1.83;;;9.10;76.80;;;;;;3584753;39;20024;-67
2021/05/07 06:05:27;;;;;;;5.13;1.85;;;9.10;76.80;;;;;;3584684;39;20016;-67
2021/05/07 06:07:52;;;;;;;6.45;2.25;;;9.10;76.80;;;;;;3584525;40;20032;-66
2021/05/07 06:10:19;;;;;;;3.22;2.42;;;9.10;76.80;;;;;;3584415;39;20747;-67
2021/05/07 06:12:46;;;;;;;3.92;1.90;;;9.00;77.50;;;;;;3588554;40;20075;-66
2021/05/07 06:15:14;;;;;;;2.80;1.85;;;9.00;77.80;;;;;;3586489;40;20256;-66
2021/05/07 06:17:40;;;;;;;4.05;2.33;;;9.00;77.70;;;;;;3584110;40;20024;-67
2021/05/07 06:20:09;;;;;;;4.00;1.80;;;9.00;78.00;;;;;;3582870;40;20036;-67
2021/05/07 06:22:36;;;;;;;3.78;2.13;;;9.00;78.90;;;;;;3588329;40;20020;-67
2021/05/07 06:25:11;;;;;;;3.60;1.98;;;9.00;79.20;;;;;;3587396;40;20024;-67
2021/05/07 06:27:37;;;;;;;6.63;1.77;;;9.10;79.20;;;;;;3586870;40;20731;-67
2021/05/07 06:30:09;;;;;;;4.28;1.90;;;9.10;78.80;;;;;;3589361;40;20064;-68
2021/05/07 06:32:34;;;;;;;7.05;2.15;;;9.20;79.10;;;;;;3586203;40;20047;-67
2021/05/07 06:35:00;;;;;;;5.35;2.30;;;9.20;78.80;;;;;;3590296;40;20038;-66
2021/05/07 06:37:26;;;;;;;3.85;1.95;;;9.20;78.80;;;;;;3589310;39;20037;-67
2021/05/07 06:39:52;;;;;;;4.20;1.83;;;9.10;78.70;;;;;;3588739;40;20028;-66
2021/05/07 06:42:21;;;;;;;4.00;2.15;;;9.10;78.50;;;;;;3584978;40;20547;-67
2021/05/07 06:44:46;;;;;;;3.28;1.90;;;9.00;78.70;;;;;;3589395;40;20032;-68
2021/05/07 06:47:12;;;;;;;6.78;1.85;;;9.00;77.40;;;;;;3590363;40;20043;-67
2021/05/07 06:49:38;;;;;;;5.78;2.22;;;8.90;77.70;;;;;;3589674;40;20800;-67
2021/05/07 06:52:04;;;;;;;4.72;1.95;;;8.90;78.10;;;;;;3587453;40;20084;-67
2021/05/07 06:54:30;;;;;;;3.28;2.10;;;8.80;78.20;;;;;;3587173;40;20020;-68
2021/05/07 06:56:57;;;;;;;5.15;1.70;;;8.80;78.50;;;;;;3587746;40;20040;-67
2021/05/07 06:59:27;;;;;;;3.42;1.75;;;8.80;78.00;;;;;;3587549;40;20027;-67
2021/05/07 07:01:53;;;;;;;4.35;1.50;;;8.80;78.10;;;;;;3587280;40;20744;-67
2021/05/07 07:04:19;;;;;;;3.90;2.72;;;8.80;78.20;;;;;;3587640;40;20044;-67
2021/05/07 07:06:45;;;;;;;3.17;1.98;;;8.90;77.30;;;;;;3587681;40;20467;-67
2021/05/07 07:09:15;;;;;;;3.28;2.00;;;8.90;76.90;;;;;;3591590;39;20076;-67
2021/05/07 07:11:41;;;;;;;10.05;2.30;;;8.80;77.10;;;;;;3587890;40;20048;-66
2021/05/07 07:14:07;;;;;;;6.35;1.92;;;8.70;76.60;;;;;;3591531;40;20044;-66
2021/05/07 07:16:33;;;;;;;6.22;1.95;;;8.70;77.50;;;;;;3590972;40;20028;-67
2021/05/07 07:19:00;;;;;;;3.45;2.00;;;8.70;77.60;;;;;;3589579;40;20047;-67
2021/05/07 07:21:26;;;;;;;7.28;1.95;;;8.70;77.60;;;;;;3588705;40;20109;-67
2021/05/07 07:23:52;;;;;;;4.97;1.70;;;8.70;77.00;;;;;;3592408;40;20044;-67
2021/05/07 07:26:18;;;;;;;11.48;1.90;;;8.60;75.90;;;;;;3588867;40;20032;-66
2021/05/07 07:28:47;;;;;;;5.13;2.03;;;8.40;77.00;;;;;;3590231;40;20068;-67
2021/05/07 07:31:13;;;;;;;3.83;2.17;;;8.30;77.90;;;;;;3589078;40;20674;-66
2021/05/07 07:33:39;;;;;;;3.08;1.77;;;8.20;78.30;;;;;;3590619;40;20116;-68
2021/05/07 07:36:05;;;;;;;4.10;1.80;;;8.10;79.20;;;;;;3586385;40;20048;-67
2021/05/07 07:38:30;;;;;;;5.40;2.00;;;8.00;78.80;;;;;;3588729;40;20854;-68
2021/05/07 07:40:56;;;;;;;3.38;2.00;;;7.80;79.70;;;;;;3590040;40;20036;-68
2021/05/07 07:43:22;;;;;;;3.45;1.95;;;7.80;79.70;;;;;;3590340;40;20086;-69
2021/05/07 07:45:48;;;;;;;3.47;1.70;;;7.70;80.20;;;;;;3589310;40;20397;-67
2021/05/07 07:48:15;;;;;;;3.80;1.80;;;7.60;79.60;;;;;;3584498;40;20095;-68
2021/05/07 07:50:41;;;;;;;7.38;2.75;;;7.60;80.70;;;;;;3590957;40;20043;-68
2021/05/07 07:53:07;;;;;;;3.10;1.92;;;7.60;80.40;;;;;;3589942;40;20035;-67
2021/05/07 07:55:33;;;;;;;6.88;2.70;;;7.60;80.30;;;;;;3587316;40;20099;-75
2021/05/07 07:57:59;;;;;;;6.00;1.73;;;7.50;80.40;;;;;;3589931;40;20012;-67
2021/05/07 08:00:25;;;;;;;2.42;1.35;;;7.50;79.10;;;;;;3589875;40;20028;-70
2021/05/07 08:02:51;;;;;;;2.95;1.60;;;7.40;78.90;;;;;;3584245;40;20039;-69
2021/05/07 08:05:17;;;;;;;1.30;1.20;;;7.30;79.00;;;;;;3588550;40;20040;-68
2021/05/07 08:07:45;;;;;;;3.80;1.23;;;7.30;79.50;;;;;;3586745;40;20105;-70
2021/05/07 08:10:12;;;;;;;2.45;1.30;;;7.20;77.90;;;;;;3589583;40;20036;-71
2021/05/07 08:12:37;;;;;;;1.73;1.33;;;7.00;78.10;;;;;;3582490;40;20043;-70
2021/05/07 08:15:04;;;;;;;2.60;1.10;;;6.90;78.60;;;;;;3585122;40;20024;-70
2021/05/07 08:17:29;;;;;;;1.50;1.00;;;6.80;78.10;;;;;;3586599;39;20612;-71
2021/05/07 08:19:55;;;;;;;1.58;1.17;;;6.80;77.50;;;;;;3588753;40;20032;-70
2021/05/07 08:22:21;;;;;;;1.40;1.23;;;6.70;76.60;;;;;;3589712;40;20152;-70
2021/05/07 08:24:46;;;;;;;1.85;0.90;;;6.60;75.90;;;;;;3582382;40;20531;-70
2021/05/07 08:27:12;;;;;;;2.03;0.95;;;6.40;75.60;;;;;;3590243;40;20036;-67
2021/05/07 08:29:38;;;;;;;2.70;1.50;;;6.30;75.30;;;;;;3589600;39;20028;-67
2021/05/07 08:32:05;;;;;;;1.25;0.90;;;6.20;75.80;;;;;;3588906;40;20051;-67
2021/05/07 08:34:30;;;;;;;1.95;0.88;;;6.10;75.40;;;;;;3583494;40;20032;-67
2021/05/07 08:36:56;;;;;;;2.40;1.13;;;6.00;75.80;;;;;;3583144;40;20456;-67
2021/05/07 08:39:22;;;;;;;2.17;1.20;;;5.90;75.70;;;;;;3590990;40;20028;-67
2021/05/07 08:41:48;;;;;;;2.92;1.27;;;5.80;76.00;;;;;;3588066;40;20608;-67
2021/05/07 08:44:14;;;;;;;1.77;1.20;;;5.60;75.80;;;;;;3588981;40;20677;-66
2021/05/07 08:46:41;;;;;;;4.50;0.90;;;5.60;76.50;;;;;;3590287;40;20024;-66
2021/05/07 08:49:11;;;;;;;1.33;1.10;;;5.50;76.80;;;;;;3590147;40;20048;-66
2021/05/07 08:51:39;;;;;;;1.55;1.15;;;5.60;76.50;;;;;;3590863;39;20379;-66
2021/05/07 08:54:07;;;;;;;1.95;1.00;;;5.60;77.00;;;;;;3589108;40;20334;-66
2021/05/07 08:56:33;;;;;;;1.20;1.10;;;5.70;77.30;;;;;;3587179;40;20040;-66
2021/05/07 08:58:59;;;;;;;1.52;1.10;;;5.70;77.10;;;;;;3588743;40;20678;-68
2021/05/07 09:01:25;;;;;;;1.92;1.13;;;5.70;77.80;;;;;;3588108;40;20020;-67
2021/05/07 09:03:51;;;;;;;1.10;1.00;;;5.80;78.20;;;;;;3588515;39;20326;-67
2021/05/07 09:06:23;;;;;;;1.58;1.00;;;5.90;78.20;;;;;;3586658;40;20108;-67
2021/05/07 09:08:50;;;;;;;1.85;0.90;;;5.90;78.40;;;;;;3588601;40;20644;-66
2021/05/07 09:11:16;;;;;;;1.60;1.20;;;6.00;78.20;;;;;;3585510;39;20056;-68
2021/05/07 09:13:42;;;;;;;1.80;1.00;;;6.10;77.70;;;;;;3583672;40;20023;-67
2021/05/07 09:16:10;;;;;;;1.92;1.10;;;6.30;77.60;;;;;;3581259;40;20020;-66
2021/05/07 09:18:44;;;;;;;2.70;0.80;;;6.40;78.60;;;;;;3584132;40;20044;-66
2021/05/07 09:21:11;;;;;;;1.67;0.80;;;6.50;78.60;;;;;;3584616;40;20813;-67
2021/05/07 09:23:44;;;;;;;2.63;1.02;;;6.70;78.40;;;;;;3584967;40;20095;-66
2021/05/07 09:26:10;;;;;;;1.10;0.90;;;6.70;78.40;;;;;;3589672;40;20616;-67
2021/05/07 09:28:49;;;;;;;1.83;0.98;;;6.80;78.90;;;;;;3586719;39;20308;-66
2021/05/07 09:31:17;;;;;;;1.80;0.77;;;6.80;79.20;;;;;;3588931;40;20036;-69
2021/05/07 09:33:45;;;;;;;0.82;0.82;;;6.70;79.60;;;;;;3588140;40;20043;-66
2021/05/07 09:36:25;;;;;;;0.95;0.90;;;6.80;79.30;;;;;;3586087;40;20107;-65
2021/05/07 09:38:52;;;;;;;1.48;0.90;;;6.70;80.60;;;;;;3589707;40;20012;-72
2021/05/07 09:41:18;;;;;;;0.75;0.70;;;6.80;80.40;;;;;;3589071;40;20043;-67
2021/05/07 09:43:44;;;;;;;0.63;0.60;;;6.80;81.60;;;;;;3586479;39;20024;-67
2021/05/07 09:46:10;;;;;;;1.50;0.50;;;6.90;81.70;;;;;;3587314;40;20021;-67
2021/05/07 09:48:40;;;;;;;2.58;0.50;;;7.00;81.40;;;;;;3588135;40;20044;-66
2021/05/07 09:51:07;;;;;;;1.05;0.57;;;7.10;81.20;;;;;;3582305;40;20827;-67
2021/05/07 09:53:35;;;;;;;3.25;1.80;;;7.10;81.40;;;;;;3587507;40;20047;-66
2021/05/07 09:56:12;;;;;;;0.93;0.60;;;7.20;81.30;;;;;;3588210;40;20032;-67
2021/05/07 09:58:38;;;;;;;19.13;9.50;;;7.30;81.80;;;;;;3589942;40;20022;-67
2021/05/07 10:01:05;;;;;;;1.05;0.75;;;7.40;81.30;;;;;;3589522;40;20031;-66
2021/05/07 10:03:30;;;;;;;0.82;0.80;;;7.70;81.40;;;;;;3588020;40;20482;-67
2021/05/07 10:05:56;;;;;;;0.68;0.60;;;8.10;80.70;;;;;;3589085;39;20036;-66
2021/05/07 10:08:22;;;;;;;1.23;0.77;;;8.50;80.40;;;;;;3586640;40;20023;-66
2021/05/07 10:10:49;;;;;;;1.63;0.65;;;9.00;80.60;;;;;;3585755;39;20023;-67
2021/05/07 10:13:26;;;;;;;1.55;0.90;;;9.40;77.50;;;;;;3586404;39;20028;-67
2021/05/07 10:16:03;;;;;;;1.48;0.90;;;9.70;76.80;;;;;;3588133;40;20375;-67
2021/05/07 10:18:33;;;;;;;1.00;0.80;;;10.10;77.30;;;;;;3580488;40;20040;-66
2021/05/07 10:21:07;;;;;;;1.20;1.10;;;10.50;75.80;;;;;;3582708;40;20513;-67
2021/05/07 10:23:35;;;;;;;2.00;1.45;;;10.80;72.70;;;;;;3585995;40;20074;-66
2021/05/07 10:26:09;;;;;;;1.40;1.30;;;10.90;72.10;;;;;;3585002;40;20024;-66
2021/05/07 10:28:53;;;;;;;3.03;1.30;;;11.00;72.70;;;;;;3581782;40;20040;-67
2021/05/07 10:31:21;;;;;;;4.97;2.88;;;11.40;72.10;;;;;;3589869;39;20121;-66
2021/05/07 10:34:01;;;;;;;5.30;2.45;;;11.80;71.50;;;;;;3588311;40;20040;-64
2021/05/07 10:36:40;;;;;;;1.90;1.20;;;12.30;69.50;;;;;;3586615;40;20044;-66
2021/05/07 10:39:24;;;;;;;2.00;0.93;;;12.60;64.70;;;;;;3586722;40;20040;-66
2021/05/07 10:41:52;;;;;;;1.75;1.08;;;12.80;67.10;;;;;;3590017;40;20128;-66
2021/05/07 10:44:18;;;;;;;1.98;1.50;;;12.80;68.60;;;;;;3583067;40;20044;-66
2021/05/07 10:46:46;;;;;;;2.78;1.20;;;12.70;66.30;;;;;;3587721;40;20221;-66
2021/05/07 10:49:13;;;;;;;3.53;1.50;;;12.60;66.90;;;;;;3587458;39;20020;-66
2021/05/07 10:51:39;;;;;;;2.00;1.00;;;12.50;67.20;;;;;;3586707;40;20117;-66
2021/05/07 10:54:04;;;;;;;29.17;13.07;;;12.60;65.00;;;;;;3585455;40;20084;-67
2021/05/07 10:56:34;;;;;;;6.57;1.58;;;12.50;65.90;;;;;;3582421;40;20055;-66
2021/05/07 10:59:14;;;;;;;2.25;1.27;;;12.70;67.60;;;;;;3588903;40;20035;-72
2021/05/07 11:01:40;;;;;;;1.33;1.13;;;13.30;64.40;;;;;;3589042;40;20108;-71
2021/05/07 11:04:08;;;;;;;2.90;1.70;;;13.30;63.80;;;;;;3588027;40;20040;-71
2021/05/07 11:06:41;;;;;;;2.50;1.70;;;13.30;66.50;;;;;;3590905;40;20044;-71
2021/05/07 11:09:17;;;;;;;2.35;1.75;;;13.30;67.30;;;;;;3590457;39;20068;-72
2021/05/07 11:11:45;;;;;;;5.13;2.75;;;13.30;63.10;;;;;;3590394;40;20080;-72
2021/05/07 11:14:22;;;;;;;3.70;1.80;;;13.40;65.60;;;;;;3586942;40;20040;-72
2021/05/07 11:16:49;;;;;;;3.65;1.55;;;13.40;62.10;;;;;;3586755;40;20044;-72
2021/05/07 11:19:32;;;;;;;3.08;1.60;;;13.10;61.30;;;;;;3584372;40;20399;-72
2021/05/07 11:22:04;;;;;;;3.92;1.50;;;12.90;63.50;;;;;;3584573;40;20370;-72
2021/05/07 11:24:35;;;;;;;3.92;1.85;;;12.80;66.60;;;;;;3590013;40;20021;-72
2021/05/07 11:27:27;;;;;;;3.47;1.70;;;12.90;66.10;;;;;;3588312;40;20314;-66
2021/05/07 11:30:04;;;;;;;5.00;2.45;;;12.80;64.40;;;;;;3579843;40;20032;-66
2021/05/07 11:32:31;;;;;;;3.33;2.88;;;12.40;65.40;;;;;;3588743;40;20076;-65
2021/05/07 11:34:59;;;;;;;3.97;3.28;;;12.00;66.00;;;;;;3591535;40;20035;-64
2021/05/07 11:37:26;;;;;;;6.32;2.92;;;11.60;68.20;;;;;;3590095;40;20036;-66
2021/05/07 11:39:59;;;;;;;3.70;3.30;;;11.60;70.60;;;;;;3589793;40;20033;-66
2021/05/07 11:42:33;;;;;;;4.57;3.50;;;11.70;70.80;;;;;;3587951;40;20485;-66
2021/05/07 11:45:00;;;;;;;3.50;3.20;;;11.90;70.60;;;;;;3591596;40;20040;-66
2021/05/07 11:47:32;;;;;;;6.50;4.30;;;12.20;71.20;;;;;;3592062;40;20028;-66
2021/05/07 11:49:58;;;;;;;5.82;3.22;;;12.50;69.50;;;;;;3587196;40;20020;-67
2021/05/07 11:52:38;;;;;;;4.32;3.53;;;12.70;68.90;;;;;;3587549;40;20113;-66
2021/05/07 11:55:06;;;;;;;4.40;3.63;;;12.70;68.10;;;;;;3585195;40;20047;-66
2021/05/07 11:57:33;;;;;;;4.13;3.38;;;12.80;67.50;;;;;;3591885;40;20031;-70
2021/05/07 11:59:59;;;;;;;5.53;3.47;;;13.00;67.40;;;;;;3591305;40;20346;-75
2021/05/07 12:02:26;;;;;;;5.75;3.47;;;13.00;65.30;;;;;;3585128;40;20020;-71
2021/05/07 12:04:54;;;;;;;6.57;3.95;;;13.00;64.80;;;;;;3587498;40;20080;-71
2021/05/07 12:07:35;;;;;;;10.75;5.97;;;12.90;64.30;;;;;;3591022;40;20322;-71
2021/05/07 12:10:02;;;;;;;5.63;3.70;;;12.70;64.40;;;;;;3583523;40;20028;-71
2021/05/07 12:12:39;;;;;;;5.35;3.28;;;12.40;65.50;;;;;;3585316;40;20035;-71
2021/05/07 12:15:12;;;;;;;3.70;2.88;;;12.30;68.40;;;;;;3587076;40;20109;-68
2021/05/07 12:17:49;;;;;;;3.38;1.92;;;12.10;68.10;;;;;;3585902;40;20039;-68
2021/05/07 12:20:20;;;;;;;3.28;1.83;;;11.90;68.30;;;;;;3589565;40;20302;-70
2021/05/07 12:22:51;;;;;;;1.83;1.40;;;11.70;67.90;;;;;;3591604;40;20031;-71
2021/05/07 12:25:19;;;;;;;2.85;1.20;;;11.60;67.60;;;;;;3591961;39;20028;-70
2021/05/07 12:27:46;;;;;;;1.67;1.30;;;11.50;69.70;;;;;;3590390;40;20035;-70
2021/05/07 12:30:30;;;;;;;1.80;1.45;;;11.50;69.50;;;;;;3588395;40;20033;-71
2021/05/07 12:32:56;;;;;;;3.15;1.42;;;11.40;69.90;;;;;;3584704;40;20048;-70
2021/05/07 12:35:22;;;;;;;2.03;1.52;;;11.40;69.30;;;;;;3583029;40;20055;-71
2021/05/07 12:37:48;;;;;;;1.88;1.70;;;11.30;67.40;;;;;;3584889;40;20043;-71
2021/05/07 12:40:14;;;;;;;1.80;1.48;;;11.20;67.60;;;;;;3588234;40;20036;-70
2021/05/07 12:42:39;;;;;;;1.80;1.30;;;11.10;71.00;;;;;;3588771;39;20050;-71
2021/05/07 12:45:06;;;;;;;2.25;1.60;;;11.30;72.30;;;;;;3586316;39;20049;-69
2021/05/07 12:47:31;;;;;;;1.92;1.77;;;11.40;70.70;;;;;;3590562;40;20044;-71
2021/05/07 12:49:57;;;;;;;5.72;1.98;;;11.50;67.60;;;;;;3585829;40;20017;-69
2021/05/07 12:52:26;;;;;;;14.82;8.45;;;11.50;69.10;;;;;;3586509;40;20056;-69
2021/05/07 12:54:51;;;;;;;3.47;1.80;;;11.50;68.70;;;;;;3586258;40;20028;-69
2021/05/07 12:57:17;;;;;;;3.17;1.80;;;11.60;69.20;;;;;;3585791;40;20038;-73
2021/05/07 12:59:43;;;;;;;2.53;2.17;;;11.70;69.20;;;;;;3590195;40;20036;-71